Time,TemperatureF,DewpointF,PressureIn,WindDirection,WindDirectionDegrees,WindSpeedMPH,WindSpeedGustMPH,Humidity,HourlyPrecipIn,Conditions,Clouds,dailyrainin,SoftwareType,DateUTC
2013-08-19 00:00:00,59.0,-99.9,30.10,North,360,5.0,6.0,-999,-99.99,,,-99.99,,2013-08-19 07:00:00,
2013-08-19 00:21:00,59.0,-99.9,30.10,North,360,5.0,6.0,-999,-99.99,,,-99.99,,2013-08-19 07:21:00,
2013-08-19 00:32:00,59.0,-99.9,30.10,North,360,5.0,6.0,-999,-99.99,,,-99.99,,2013-08-19 07:32:00,
2013-08-19 00:42:00,59.0,-99.9,30.10,North,360,5.0,6.0,-999,-99.99,,,-99.99,,2013-08-19 07:42:00,
2013-08-19 00:52:00,59.0,-99.9,30.10,North,360,5.0,6.0,-999,-99.99,,,-99.99,,2013-08-19 07:52:00,
2013-08-19 01:00:00,58.0,-99.9,30.11,North,350,6.0,6.0,-999,-99.99,,,-99.99,,2013-08-19 08:00:00,
2013-08-19 01:22:00,58.0,-99.9,30.11,North,350,6.0,6.0,-999,-99.99,,,-99.99,,2013-08-19 08:22:00,
2013-08-19 01:32:00,58.0,-99.9,30.11,North,350,6.0,6.0,-999,-99.99,,,-99.99,,2013-08-19 08:32:00,
2013-08-19 01:42:00,58.0,-99.9,30.11,North,350,6.0,6.0,-999,-99.99,,,-99.99,,2013-08-19 08:42:00,
2013-08-19 01:52:00,58.0,-99.9,30.11,North,350,6.0,6.0,-999,-99.99,,,-99.99,,2013-08-19 08:52:00,
2013-08-19 02:00:00,58.0,-99.9,30.10,ENE,70,2.0,2.0,-999,-99.99,,,-99.99,,2013-08-19 09:00:00,
2013-08-19 02:22:00,58.0,-99.9,30.10,ENE,70,2.0,2.0,-999,-99.99,,,-99.99,,2013-08-19 09:22:00,
2013-08-19 02:33:00,58.0,-99.9,30.10,ENE,70,2.0,2.0,-999,-99.99,,,-99.99,,2013-08-19 09:33:00,
2013-08-19 02:43:00,58.0,-99.9,30.10,ENE,70,2.0,2.0,-999,-99.99,,,-99.99,,2013-08-19 09:43:00,
2013-08-19 02:53:00,58.0,-99.9,30.10,ENE,70,2.0,2.0,-999,-99.99,,,-99.99,,2013-08-19 09:53:00,
2013-08-19 03:00:00,57.0,-99.9,30.09,ENE,60,2.0,2.0,-999,-99.99,,,-99.99,,2013-08-19 10:00:00,
2013-08-19 03:23:00,57.0,-99.9,30.09,ENE,60,2.0,2.0,-999,-99.99,,,-99.99,,2013-08-19 10:23:00,
2013-08-19 03:33:00,57.0,-99.9,30.09,ENE,60,2.0,2.0,-999,-99.99,,,-99.99,,2013-08-19 10:33:00,
2013-08-19 03:43:00,57.0,-99.9,30.09,ENE,60,2.0,2.0,-999,-99.99,,,-99.99,,2013-08-19 10:43:00,
2013-08-19 03:52:00,57.0,-99.9,30.09,ENE,60,2.0,2.0,-999,-99.99,,,-99.99,,2013-08-19 10:52:00,
2013-08-19 04:00:00,56.0,-99.9,30.09,East,80,5.0,5.0,-999,-99.99,,,-99.99,,2013-08-19 11:00:00,
2013-08-19 04:22:00,56.0,-99.9,30.09,East,80,5.0,5.0,-999,-99.99,,,-99.99,,2013-08-19 11:22:00,
2013-08-19 04:33:00,56.0,-99.9,30.09,East,80,5.0,5.0,-999,-99.99,,,-99.99,,2013-08-19 11:33:00,
2013-08-19 04:45:00,56.0,-99.9,30.09,East,80,5.0,5.0,-999,-99.99,,,-99.99,,2013-08-19 11:45:00,
2013-08-19 04:52:00,56.0,-99.9,30.09,East,80,5.0,5.0,-999,-99.99,,,-99.99,,2013-08-19 11:52:00,
2013-08-19 05:00:00,55.0,-99.9,30.09,East,80,3.0,5.0,-999,-99.99,,,-99.99,,2013-08-19 12:00:00,
2013-08-19 05:21:00,55.0,-99.9,30.09,East,80,3.0,5.0,-999,-99.99,,,-99.99,,2013-08-19 12:21:00,
2013-08-19 05:32:00,55.0,-99.9,30.09,East,80,3.0,5.0,-999,-99.99,,,-99.99,,2013-08-19 12:32:00,
2013-08-19 05:42:00,55.0,-99.9,30.09,East,80,3.0,5.0,-999,-99.99,,,-99.99,,2013-08-19 12:42:00,
2013-08-19 05:52:00,55.0,-99.9,30.09,East,80,3.0,5.0,-999,-99.99,,,-99.99,,2013-08-19 12:52:00,
2013-08-19 06:00:00,54.0,-99.9,30.10,ENE,60,5.0,6.0,-999,-99.99,,,-99.99,,2013-08-19 13:00:00,
2013-08-19 06:22:00,54.0,-99.9,30.10,ENE,60,5.0,6.0,-999,-99.99,,,-99.99,,2013-08-19 13:22:00,
2013-08-19 06:32:00,54.0,-99.9,30.10,ENE,60,5.0,6.0,-999,-99.99,,,-99.99,,2013-08-19 13:32:00,
2013-08-19 06:42:00,54.0,-99.9,30.10,ENE,60,5.0,6.0,-999,-99.99,,,-99.99,,2013-08-19 13:42:00,
2013-08-19 06:52:00,54.0,-99.9,30.10,ENE,60,5.0,6.0,-999,-99.99,,,-99.99,,2013-08-19 13:52:00,
2013-08-19 07:00:00,55.0,-99.9,30.11,ENE,60,5.0,5.0,-999,-99.99,,,-99.99,,2013-08-19 14:00:00,
2013-08-19 07:22:00,55.0,-99.9,30.11,ENE,60,5.0,5.0,-999,-99.99,,,-99.99,,2013-08-19 14:22:00,
2013-08-19 07:32:00,55.0,-99.9,30.11,ENE,60,5.0,5.0,-999,-99.99,,,-99.99,,2013-08-19 14:32:00,
2013-08-19 07:42:00,55.0,-99.9,30.11,ENE,60,5.0,5.0,-999,-99.99,,,-99.99,,2013-08-19 14:42:00,
2013-08-19 07:52:00,55.0,-99.9,30.11,ENE,60,5.0,5.0,-999,-99.99,,,-99.99,,2013-08-19 14:52:00,
2013-08-19 08:00:00,56.0,-99.9,30.12,NE,50,2.0,2.0,-999,-99.99,,,-99.99,,2013-08-19 15:00:00,
2013-08-19 08:23:00,56.0,-99.9,30.12,NE,50,2.0,2.0,-999,-99.99,,,-99.99,,2013-08-19 15:23:00,
2013-08-19 08:34:00,56.0,-99.9,30.12,NE,50,2.0,2.0,-999,-99.99,,,-99.99,,2013-08-19 15:34:00,
2013-08-19 08:44:00,56.0,-99.9,30.12,NE,50,2.0,2.0,-999,-99.99,,,-99.99,,2013-08-19 15:44:00,
2013-08-19 08:54:00,56.0,-99.9,30.12,NE,50,2.0,2.0,-999,-99.99,,,-99.99,,2013-08-19 15:54:00,
2013-08-19 09:00:00,58.0,-99.9,30.14,NNE,20,1.0,2.0,-999,-99.99,,,-99.99,,2013-08-19 16:00:00,
2013-08-19 09:23:00,58.0,-99.9,30.14,NNE,20,1.0,2.0,-999,-99.99,,,-99.99,,2013-08-19 16:23:00,
2013-08-19 09:34:00,58.0,-99.9,30.14,NNE,20,1.0,2.0,-999,-99.99,,,-99.99,,2013-08-19 16:34:00,
2013-08-19 09:47:00,58.0,-99.9,30.14,NNE,20,1.0,2.0,-999,-99.99,,,-99.99,,2013-08-19 16:47:00,
2013-08-19 10:00:00,58.0,-99.9,30.14,NW,320,2.0,2.0,-999,-99.99,,,-99.99,,2013-08-19 17:00:00,
2013-08-19 10:30:00,58.0,-99.9,30.14,NW,320,2.0,2.0,-999,-99.99,,,-99.99,,2013-08-19 17:30:00,
2013-08-19 10:38:00,58.0,-99.9,30.14,NW,320,2.0,2.0,-999,-99.99,,,-99.99,,2013-08-19 17:38:00,
2013-08-19 10:49:00,58.0,-99.9,30.14,NW,320,2.0,2.0,-999,-99.99,,,-99.99,,2013-08-19 17:49:00,
2013-08-19 10:57:00,58.0,-99.9,30.14,NW,320,2.0,2.0,-999,-99.99,,,-99.99,,2013-08-19 17:57:00,
2013-08-19 11:00:00,-999.0,-99.9,30.15,NNW,330,10.0,11.0,-999,-99.99,,,-99.99,,2013-08-19 18:00:00,
2013-08-19 11:28:00,58.0,-99.9,30.15,NNW,330,10.0,11.0,-999,-99.99,,,-99.99,,2013-08-19 18:28:00,
2013-08-19 11:39:00,58.0,-99.9,30.15,NNW,330,10.0,11.0,-999,-99.99,,,-99.99,,2013-08-19 18:39:00,
2013-08-19 11:50:00,-999.0,-99.9,30.15,NNW,330,10.0,11.0,-999,-99.99,,,-99.99,,2013-08-19 18:50:00,
2013-08-19 12:00:00,59.0,-99.9,30.16,North,360,9.0,9.0,-999,-99.99,,,-99.99,,2013-08-19 19:00:00,
2013-08-19 12:30:00,-999.0,-99.9,30.16,North,360,9.0,9.0,-999,-99.99,,,-99.99,,2013-08-19 19:30:00,
2013-08-19 12:40:00,59.0,-99.9,30.16,North,360,9.0,9.0,-999,-99.99,,,-99.99,,2013-08-19 19:40:00,
2013-08-19 12:50:00,59.0,-99.9,30.16,North,360,9.0,9.0,-999,-99.99,,,-99.99,,2013-08-19 19:50:00,
2013-08-19 12:59:00,59.0,-99.9,30.16,North,360,9.0,9.0,-999,-99.99,,,-99.99,,2013-08-19 19:59:00,
2013-08-19 13:00:00,-999.0,-99.9,30.13,NNW,340,16.0,17.0,-999,-99.99,,,-99.99,,2013-08-19 20:00:00,
2013-08-19 13:30:00,58.0,-99.9,30.15,NNW,340,16.0,17.0,-999,-99.99,,,-99.99,,2013-08-19 20:30:00,
2013-08-19 13:40:00,58.0,-99.9,30.15,NNW,340,16.0,17.0,-999,-99.99,,,-99.99,,2013-08-19 20:40:00,
2013-08-19 13:50:00,58.0,-99.9,30.15,NNW,340,16.0,17.0,-999,-99.99,,,-99.99,,2013-08-19 20:50:00,
2013-08-19 14:00:00,60.0,-99.9,30.15,NNW,340,15.0,17.0,-999,-99.99,,,-99.99,,2013-08-19 21:00:00,
2013-08-19 14:25:00,60.0,-99.9,30.15,NNW,340,15.0,17.0,-999,-99.99,,,-99.99,,2013-08-19 21:25:00,
2013-08-19 14:38:00,60.0,-99.9,30.15,NNW,340,15.0,17.0,-999,-99.99,,,-99.99,,2013-08-19 21:38:00,
2013-08-19 14:46:00,60.0,-99.9,30.15,NNW,340,15.0,17.0,-999,-99.99,,,-99.99,,2013-08-19 21:46:00,
2013-08-19 14:55:00,60.0,-99.9,30.15,NNW,340,15.0,17.0,-999,-99.99,,,-99.99,,2013-08-19 21:55:00,
2013-08-19 15:00:00,60.0,-99.9,30.14,NNW,340,17.0,20.0,-999,-99.99,,,-99.99,,2013-08-19 22:00:00,
2013-08-19 15:25:00,60.0,-99.9,30.14,NNW,340,17.0,20.0,-999,-99.99,,,-99.99,,2013-08-19 22:25:00,
2013-08-19 15:35:00,60.0,-99.9,30.14,NNW,340,17.0,20.0,-999,-99.99,,,-99.99,,2013-08-19 22:35:00,
2013-08-19 15:44:00,60.0,-99.9,30.14,NNW,340,17.0,20.0,-999,-99.99,,,-99.99,,2013-08-19 22:44:00,
2013-08-19 15:55:00,60.0,-99.9,30.14,NNW,340,17.0,20.0,-999,-99.99,,,-99.99,,2013-08-19 22:55:00,
2013-08-19 16:00:00,60.0,-99.9,30.13,NNW,340,21.0,23.0,-999,-99.99,,,-99.99,,2013-08-19 23:00:00,
2013-08-19 16:25:00,60.0,-99.9,30.13,NNW,340,21.0,23.0,-999,-99.99,,,-99.99,,2013-08-19 23:25:00,
2013-08-19 16:36:00,60.0,-99.9,30.13,NNW,340,21.0,23.0,-999,-99.99,,,-99.99,,2013-08-19 23:36:00,
2013-08-19 16:48:00,60.0,-99.9,30.13,NNW,340,21.0,23.0,-999,-99.99,,,-99.99,,2013-08-19 23:48:00,
2013-08-19 16:55:00,60.0,-99.9,30.13,NNW,340,21.0,23.0,-999,-99.99,,,-99.99,,2013-08-19 23:55:00,
2013-08-19 17:00:00,60.0,-99.9,30.11,NNW,340,22.0,23.0,-999,-99.99,,,-99.99,,2013-08-20 00:00:00,
2013-08-19 17:24:00,60.0,-99.9,30.11,NNW,340,22.0,23.0,-999,-99.99,,,-99.99,,2013-08-20 00:24:00,
2013-08-19 17:32:00,60.0,-99.9,30.11,NNW,340,22.0,23.0,-999,-99.99,,,-99.99,,2013-08-20 00:32:00,
2013-08-19 17:42:00,60.0,-99.9,30.11,NNW,340,22.0,23.0,-999,-99.99,,,-99.99,,2013-08-20 00:42:00,
2013-08-19 17:53:00,60.0,-99.9,30.11,NNW,340,22.0,23.0,-999,-99.99,,,-99.99,,2013-08-20 00:53:00,
2013-08-19 18:00:00,60.0,-99.9,30.11,North,350,21.0,23.0,-999,-99.99,,,-99.99,,2013-08-20 01:00:00,
2013-08-19 18:22:00,60.0,-99.9,30.11,North,350,21.0,23.0,-999,-99.99,,,-99.99,,2013-08-20 01:22:00,
2013-08-19 18:32:00,60.0,-99.9,30.11,North,350,21.0,23.0,-999,-99.99,,,-99.99,,2013-08-20 01:32:00,
2013-08-19 18:42:00,60.0,-99.9,30.11,North,350,21.0,23.0,-999,-99.99,,,-99.99,,2013-08-20 01:42:00,
2013-08-19 18:52:00,60.0,-99.9,30.11,North,350,21.0,23.0,-999,-99.99,,,-99.99,,2013-08-20 01:52:00,
2013-08-19 19:00:00,59.0,-99.9,30.10,North,360,18.0,22.0,-999,-99.99,,,-99.99,,2013-08-20 02:00:00,
2013-08-19 19:21:00,59.0,-99.9,30.10,North,360,18.0,22.0,-999,-99.99,,,-99.99,,2013-08-20 02:21:00,
2013-08-19 19:33:00,59.0,-99.9,30.10,North,360,18.0,22.0,-999,-99.99,,,-99.99,,2013-08-20 02:33:00,
2013-08-19 19:42:00,59.0,-99.9,30.10,North,360,18.0,22.0,-999,-99.99,,,-99.99,,2013-08-20 02:42:00,
2013-08-19 19:52:00,59.0,-99.9,30.10,North,360,18.0,22.0,-999,-99.99,,,-99.99,,2013-08-20 02:52:00,
2013-08-19 20:00:00,60.0,-99.9,30.09,North,350,26.0,32.0,-999,-99.99,,,-99.99,,2013-08-20 03:00:00,
2013-08-19 20:22:00,60.0,-99.9,30.09,North,350,26.0,32.0,-999,-99.99,,,-99.99,,2013-08-20 03:22:00,
2013-08-19 20:33:00,60.0,-99.9,30.09,North,350,26.0,32.0,-999,-99.99,,,-99.99,,2013-08-20 03:33:00,
2013-08-19 20:43:00,60.0,-99.9,30.09,North,350,26.0,32.0,-999,-99.99,,,-99.99,,2013-08-20 03:43:00,
2013-08-19 20:54:00,60.0,-99.9,30.09,North,350,26.0,32.0,-999,-99.99,,,-99.99,,2013-08-20 03:54:00,
2013-08-19 21:00:00,59.0,-99.9,30.10,North,350,25.0,28.0,-999,-99.99,,,-99.99,,2013-08-20 04:00:00,
2013-08-19 21:23:00,59.0,-99.9,30.10,North,350,25.0,28.0,-999,-99.99,,,-99.99,,2013-08-20 04:23:00,
2013-08-19 21:33:00,59.0,-99.9,30.10,North,350,25.0,28.0,-999,-99.99,,,-99.99,,2013-08-20 04:33:00,
2013-08-19 21:43:00,59.0,-99.9,30.10,North,350,25.0,28.0,-999,-99.99,,,-99.99,,2013-08-20 04:43:00,
2013-08-19 21:54:00,59.0,-99.9,30.10,North,350,25.0,28.0,-999,-99.99,,,-99.99,,2013-08-20 04:54:00,
2013-08-19 22:00:00,59.0,-99.9,30.11,North,360,24.0,26.0,-999,-99.99,,,-99.99,,2013-08-20 05:00:00,
2013-08-19 22:22:00,59.0,-99.9,30.11,North,360,24.0,26.0,-999,-99.99,,,-99.99,,2013-08-20 05:22:00,
2013-08-19 22:32:00,59.0,-99.9,30.11,North,360,24.0,26.0,-999,-99.99,,,-99.99,,2013-08-20 05:32:00,
2013-08-19 22:43:00,59.0,-99.9,30.11,North,360,24.0,26.0,-999,-99.99,,,-99.99,,2013-08-20 05:43:00,
2013-08-19 22:52:00,59.0,-99.9,30.11,North,360,24.0,26.0,-999,-99.99,,,-99.99,,2013-08-20 05:52:00,
2013-08-19 23:00:00,58.0,-99.9,30.11,North,360,20.0,22.0,-999,-99.99,,,-99.99,,2013-08-20 06:00:00,
2013-08-19 23:22:00,58.0,-99.9,30.11,North,360,20.0,22.0,-999,-99.99,,,-99.99,,2013-08-20 06:22:00,
2013-08-19 23:32:00,58.0,-99.9,30.11,North,360,20.0,22.0,-999,-99.99,,,-99.99,,2013-08-20 06:32:00,
2013-08-19 23:42:00,58.0,-99.9,30.11,North,360,20.0,22.0,-999,-99.99,,,-99.99,,2013-08-20 06:42:00,
2013-08-19 23:52:00,58.0,-99.9,30.11,North,360,20.0,22.0,-999,-99.99,,,-99.99,,2013-08-20 06:52:00,